sensor_id;sensor_type;location;lat;lon;timestamp;P1;durP1;ratioP1;P2;durP2;ratioP2
10479;SDS011;12789;42.610;23.040;2022-09-02T00:01:02;13.80;;;12.00;;
10479;SDS011;12789;42.610;23.040;2022-09-02T00:03:38;14.68;;;12.90;;
10479;SDS011;12789;42.610;23.040;2022-09-02T00:06:05;14.88;;;12.60;;
10479;SDS011;12789;42.610;23.040;2022-09-02T00:08:32;13.48;;;12.07;;
10479;SDS011;12789;42.610;23.040;2022-09-02T00:10:59;16.48;;;12.02;;
10479;SDS011;12789;42.610;23.040;2022-09-02T00:13:27;19.88;;;12.40;;
10479;SDS011;12789;42.610;23.040;2022-09-02T00:15:55;12.43;;;11.15;;
10479;SDS011;12789;42.610;23.040;2022-09-02T00:18:23;13.80;;;12.18;;
10479;SDS011;12789;42.610;23.040;2022-09-02T00:20:51;12.30;;;11.00;;
10479;SDS011;12789;42.610;23.040;2022-09-02T00:23:18;13.10;;;11.38;;
10479;SDS011;12789;42.610;23.040;2022-09-02T00:25:46;11.80;;;10.40;;
10479;SDS011;12789;42.610;23.040;2022-09-02T00:28:14;11.90;;;10.70;;
10479;SDS011;12789;42.610;23.040;2022-09-02T00:30:42;12.57;;;11.27;;
10479;SDS011;12789;42.610;23.040;2022-09-02T00:33:10;13.73;;;11.50;;
10479;SDS011;12789;42.610;23.040;2022-09-02T00:35:39;17.33;;;12.50;;
10479;SDS011;12789;42.610;23.040;2022-09-02T00:38:06;11.55;;;10.35;;
10479;SDS011;12789;42.610;23.040;2022-09-02T00:40:36;12.48;;;10.90;;
10479;SDS011;12789;42.610;23.040;2022-09-02T00:43:04;13.02;;;11.30;;
10479;SDS011;12789;42.610;23.040;2022-09-02T00:45:31;14.00;;;11.52;;
10479;SDS011;12789;42.610;23.040;2022-09-02T00:47:58;13.60;;;11.32;;
10479;SDS011;12789;42.610;23.040;2022-09-02T00:50:27;11.38;;;10.18;;
10479;SDS011;12789;42.610;23.040;2022-09-02T00:52:59;12.13;;;10.50;;
10479;SDS011;12789;42.610;23.040;2022-09-02T00:55:30;15.88;;;11.25;;
10479;SDS011;12789;42.610;23.040;2022-09-02T00:58:04;11.80;;;10.60;;
10479;SDS011;12789;42.610;23.040;2022-09-02T01:00:33;11.52;;;10.32;;
10479;SDS011;12789;42.610;23.040;2022-09-02T01:03:04;13.90;;;10.02;;
10479;SDS011;12789;42.610;23.040;2022-09-02T01:05:33;11.30;;;9.82;;
10479;SDS011;12789;42.610;23.040;2022-09-02T01:08:03;11.70;;;10.45;;
10479;SDS011;12789;42.610;23.040;2022-09-02T01:10:32;12.15;;;10.63;;
10479;SDS011;12789;42.610;23.040;2022-09-02T01:13:01;10.88;;;9.77;;
10479;SDS011;12789;42.610;23.040;2022-09-02T01:15:31;11.18;;;10.02;;
10479;SDS011;12789;42.610;23.040;2022-09-02T01:18:00;10.77;;;9.75;;
10479;SDS011;12789;42.610;23.040;2022-09-02T01:20:29;11.00;;;9.73;;
10479;SDS011;12789;42.610;23.040;2022-09-02T01:22:57;12.07;;;10.68;;
10479;SDS011;12789;42.610;23.040;2022-09-02T01:25:26;11.70;;;10.60;;
10479;SDS011;12789;42.610;23.040;2022-09-02T01:27:57;13.52;;;11.25;;
10479;SDS011;12789;42.610;23.040;2022-09-02T01:30:25;12.55;;;10.60;;
10479;SDS011;12789;42.610;23.040;2022-09-02T01:32:52;11.00;;;9.90;;
10479;SDS011;12789;42.610;23.040;2022-09-02T01:35:20;11.93;;;10.73;;
10479;SDS011;12789;42.610;23.040;2022-09-02T01:37:47;10.98;;;9.82;;
10479;SDS011;12789;42.610;23.040;2022-09-02T01:40:16;11.90;;;10.48;;
10479;SDS011;12789;42.610;23.040;2022-09-02T01:42:44;12.05;;;10.80;;
10479;SDS011;12789;42.610;23.040;2022-09-02T01:45:12;11.38;;;10.25;;
10479;SDS011;12789;42.610;23.040;2022-09-02T01:47:40;11.10;;;9.95;;
10479;SDS011;12789;42.610;23.040;2022-09-02T01:50:08;11.65;;;10.55;;
10479;SDS011;12789;42.610;23.040;2022-09-02T01:52:35;13.45;;;10.10;;
10479;SDS011;12789;42.610;23.040;2022-09-02T01:55:02;12.55;;;10.10;;
10479;SDS011;12789;42.610;23.040;2022-09-02T01:57:32;12.15;;;10.68;;
10479;SDS011;12789;42.610;23.040;2022-09-02T01:59:59;12.00;;;10.70;;
10479;SDS011;12789;42.610;23.040;2022-09-02T02:02:28;12.32;;;10.98;;
10479;SDS011;12789;42.610;23.040;2022-09-02T02:04:55;13.20;;;10.95;;
10479;SDS011;12789;42.610;23.040;2022-09-02T02:07:22;13.25;;;10.48;;
10479;SDS011;12789;42.610;23.040;2022-09-02T02:09:49;12.07;;;10.98;;
10479;SDS011;12789;42.610;23.040;2022-09-02T02:12:17;11.57;;;10.48;;
10479;SDS011;12789;42.610;23.040;2022-09-02T02:14:46;12.05;;;10.90;;
10479;SDS011;12789;42.610;23.040;2022-09-02T02:17:13;11.07;;;10.07;;
10479;SDS011;12789;42.610;23.040;2022-09-02T02:19:40;12.45;;;10.95;;
10479;SDS011;12789;42.610;23.040;2022-09-02T02:22:07;11.63;;;10.20;;
10479;SDS011;12789;42.610;23.040;2022-09-02T02:24:35;12.45;;;10.95;;
10479;SDS011;12789;42.610;23.040;2022-09-02T02:27:02;12.50;;;11.10;;
10479;SDS011;12789;42.610;23.040;2022-09-02T02:29:29;12.77;;;11.40;;
10479;SDS011;12789;42.610;23.040;2022-09-02T02:31:57;12.43;;;11.18;;
10479;SDS011;12789;42.610;23.040;2022-09-02T02:34:25;12.57;;;11.38;;
10479;SDS011;12789;42.610;23.040;2022-09-02T02:36:52;14.57;;;11.52;;
10479;SDS011;12789;42.610;23.040;2022-09-02T02:39:19;12.77;;;11.05;;
10479;SDS011;12789;42.610;23.040;2022-09-02T02:41:46;11.80;;;10.60;;
10479;SDS011;12789;42.610;23.040;2022-09-02T02:44:13;12.77;;;11.45;;
10479;SDS011;12789;42.610;23.040;2022-09-02T02:46:40;12.00;;;10.63;;
10479;SDS011;12789;42.610;23.040;2022-09-02T02:49:09;11.45;;;10.18;;
10479;SDS011;12789;42.610;23.040;2022-09-02T02:51:36;11.20;;;10.18;;
10479;SDS011;12789;42.610;23.040;2022-09-02T02:54:03;12.45;;;10.50;;
10479;SDS011;12789;42.610;23.040;2022-09-02T02:56:31;14.85;;;10.70;;
10479;SDS011;12789;42.610;23.040;2022-09-02T02:58:58;10.82;;;9.50;;
10479;SDS011;12789;42.610;23.040;2022-09-02T03:01:27;11.38;;;10.10;;
10479;SDS011;12789;42.610;23.040;2022-09-02T03:03:55;10.98;;;9.95;;
10479;SDS011;12789;42.610;23.040;2022-09-02T03:06:24;12.18;;;9.73;;
10479;SDS011;12789;42.610;23.040;2022-09-02T03:08:51;10.65;;;9.65;;
10479;SDS011;12789;42.610;23.040;2022-09-02T03:11:18;10.23;;;9.02;;
10479;SDS011;12789;42.610;23.040;2022-09-02T03:13:46;9.50;;;8.60;;
10479;SDS011;12789;42.610;23.040;2022-09-02T03:16:13;9.75;;;8.85;;
10479;SDS011;12789;42.610;23.040;2022-09-02T03:18:40;8.70;;;7.50;;
10479;SDS011;12789;42.610;23.040;2022-09-02T03:21:07;9.85;;;7.63;;
10479;SDS011;12789;42.610;23.040;2022-09-02T03:23:36;8.20;;;7.43;;
10479;SDS011;12789;42.610;23.040;2022-09-02T03:26:07;9.57;;;8.13;;
10479;SDS011;12789;42.610;23.040;2022-09-02T03:28:35;8.60;;;7.80;;
10479;SDS011;12789;42.610;23.040;2022-09-02T03:31:02;8.95;;;8.15;;
10479;SDS011;12789;42.610;23.040;2022-09-02T03:33:29;8.90;;;8.02;;
10479;SDS011;12789;42.610;23.040;2022-09-02T03:35:56;14.68;;;10.25;;
10479;SDS011;12789;42.610;23.040;2022-09-02T03:38:23;12.80;;;10.52;;
10479;SDS011;12789;42.610;23.040;2022-09-02T03:40:52;12.77;;;11.48;;
10479;SDS011;12789;42.610;23.040;2022-09-02T03:43:18;13.15;;;11.82;;
10479;SDS011;12789;42.610;23.040;2022-09-02T03:45:45;16.40;;;12.32;;
10479;SDS011;12789;42.610;23.040;2022-09-02T03:48:13;12.80;;;11.60;;
10479;SDS011;12789;42.610;23.040;2022-09-02T03:50:42;11.82;;;10.57;;
10479;SDS011;12789;42.610;23.040;2022-09-02T03:53:11;11.45;;;10.25;;
10479;SDS011;12789;42.610;23.040;2022-09-02T03:55:40;11.65;;;10.45;;
10479;SDS011;12789;42.610;23.040;2022-09-02T03:58:08;11.65;;;10.43;;
10479;SDS011;12789;42.610;23.040;2022-09-02T04:00:36;13.60;;;11.02;;
10479;SDS011;12789;42.610;23.040;2022-09-02T04:03:03;12.45;;;11.18;;
10479;SDS011;12789;42.610;23.040;2022-09-02T04:05:30;12.30;;;10.90;;
10479;SDS011;12789;42.610;23.040;2022-09-02T04:07:57;12.13;;;10.90;;
10479;SDS011;12789;42.610;23.040;2022-09-02T04:10:24;12.25;;;11.02;;
10479;SDS011;12789;42.610;23.040;2022-09-02T04:12:51;13.20;;;11.85;;
10479;SDS011;12789;42.610;23.040;2022-09-02T04:15:20;12.90;;;11.57;;
10479;SDS011;12789;42.610;23.040;2022-09-02T04:17:47;12.75;;;11.55;;
10479;SDS011;12789;42.610;23.040;2022-09-02T04:20:14;13.13;;;11.82;;
10479;SDS011;12789;42.610;23.040;2022-09-02T04:22:42;13.80;;;12.25;;
10479;SDS011;12789;42.610;23.040;2022-09-02T04:25:09;14.52;;;11.70;;
10479;SDS011;12789;42.610;23.040;2022-09-02T04:27:36;14.38;;;11.73;;
10479;SDS011;12789;42.610;23.040;2022-09-02T04:30:04;12.48;;;11.38;;
10479;SDS011;12789;42.610;23.040;2022-09-02T04:32:34;14.60;;;11.88;;
10479;SDS011;12789;42.610;23.040;2022-09-02T04:35:02;12.55;;;11.35;;
10479;SDS011;12789;42.610;23.040;2022-09-02T04:37:29;13.30;;;11.52;;
10479;SDS011;12789;42.610;23.040;2022-09-02T04:39:57;13.30;;;12.05;;
10479;SDS011;12789;42.610;23.040;2022-09-02T04:42:24;15.50;;;12.27;;
10479;SDS011;12789;42.610;23.040;2022-09-02T04:44:51;14.50;;;12.63;;
10479;SDS011;12789;42.610;23.040;2022-09-02T04:47:18;14.48;;;13.00;;
10479;SDS011;12789;42.610;23.040;2022-09-02T04:49:47;14.18;;;12.75;;
10479;SDS011;12789;42.610;23.040;2022-09-02T04:52:15;15.38;;;13.30;;
10479;SDS011;12789;42.610;23.040;2022-09-02T04:54:43;14.45;;;12.77;;
10479;SDS011;12789;42.610;23.040;2022-09-02T04:57:10;16.00;;;14.20;;
10479;SDS011;12789;42.610;23.040;2022-09-02T04:59:37;15.43;;;13.77;;
10479;SDS011;12789;42.610;23.040;2022-09-02T05:02:04;16.05;;;14.23;;
10479;SDS011;12789;42.610;23.040;2022-09-02T05:04:34;17.38;;;15.18;;
10479;SDS011;12789;42.610;23.040;2022-09-02T05:07:02;16.17;;;14.48;;
10479;SDS011;12789;42.610;23.040;2022-09-02T05:09:30;15.95;;;14.32;;
10479;SDS011;12789;42.610;23.040;2022-09-02T05:12:09;18.00;;;13.80;;
10479;SDS011;12789;42.610;23.040;2022-09-02T05:14:36;15.63;;;14.02;;
10479;SDS011;12789;42.610;23.040;2022-09-02T05:17:03;15.57;;;13.98;;
10479;SDS011;12789;42.610;23.040;2022-09-02T05:19:30;15.00;;;13.55;;
10479;SDS011;12789;42.610;23.040;2022-09-02T05:21:57;13.82;;;12.20;;
10479;SDS011;12789;42.610;23.040;2022-09-02T05:24:27;15.13;;;13.02;;
10479;SDS011;12789;42.610;23.040;2022-09-02T05:26:54;15.23;;;13.63;;
10479;SDS011;12789;42.610;23.040;2022-09-02T05:29:21;15.75;;;14.15;;
10479;SDS011;12789;42.610;23.040;2022-09-02T05:31:48;19.10;;;15.43;;
10479;SDS011;12789;42.610;23.040;2022-09-02T05:34:15;16.27;;;13.93;;
10479;SDS011;12789;42.610;23.040;2022-09-02T05:36:43;16.10;;;14.15;;
10479;SDS011;12789;42.610;23.040;2022-09-02T05:39:10;15.60;;;13.65;;
10479;SDS011;12789;42.610;23.040;2022-09-02T05:41:39;15.02;;;13.43;;
10479;SDS011;12789;42.610;23.040;2022-09-02T05:44:08;16.50;;;12.90;;
10479;SDS011;12789;42.610;23.040;2022-09-02T05:46:35;14.80;;;13.40;;
10479;SDS011;12789;42.610;23.040;2022-09-02T05:49:03;18.73;;;14.90;;
10479;SDS011;12789;42.610;23.040;2022-09-02T05:51:37;16.02;;;13.80;;
10479;SDS011;12789;42.610;23.040;2022-09-02T05:54:07;15.55;;;13.75;;
10479;SDS011;12789;42.610;23.040;2022-09-02T05:56:36;20.65;;;16.60;;
10479;SDS011;12789;42.610;23.040;2022-09-02T05:59:05;18.17;;;13.90;;
10479;SDS011;12789;42.610;23.040;2022-09-02T06:01:33;14.43;;;12.88;;
10479;SDS011;12789;42.610;23.040;2022-09-02T06:04:01;16.88;;;14.13;;
10479;SDS011;12789;42.610;23.040;2022-09-02T06:06:29;14.45;;;13.00;;
10479;SDS011;12789;42.610;23.040;2022-09-02T06:08:57;17.65;;;13.23;;
10479;SDS011;12789;42.610;23.040;2022-09-02T06:11:25;20.85;;;14.30;;
10479;SDS011;12789;42.610;23.040;2022-09-02T06:13:54;16.38;;;13.00;;
10479;SDS011;12789;42.610;23.040;2022-09-02T06:16:21;15.10;;;12.43;;
10479;SDS011;12789;42.610;23.040;2022-09-02T06:18:50;14.15;;;12.05;;
10479;SDS011;12789;42.610;23.040;2022-09-02T06:21:17;18.35;;;10.88;;
10479;SDS011;12789;42.610;23.040;2022-09-02T06:23:45;12.48;;;10.23;;
10479;SDS011;12789;42.610;23.040;2022-09-02T06:26:12;14.48;;;10.60;;
10479;SDS011;12789;42.610;23.040;2022-09-02T06:28:40;12.82;;;10.45;;
10479;SDS011;12789;42.610;23.040;2022-09-02T06:31:10;12.88;;;10.65;;
10479;SDS011;12789;42.610;23.040;2022-09-02T06:33:39;16.30;;;10.68;;
10479;SDS011;12789;42.610;23.040;2022-09-02T06:36:06;13.13;;;10.45;;
10479;SDS011;12789;42.610;23.040;2022-09-02T06:38:37;15.25;;;11.80;;
10479;SDS011;12789;42.610;23.040;2022-09-02T06:41:09;14.23;;;11.30;;
10479;SDS011;12789;42.610;23.040;2022-09-02T06:43:36;15.13;;;11.32;;
10479;SDS011;12789;42.610;23.040;2022-09-02T06:46:04;14.57;;;11.13;;
10479;SDS011;12789;42.610;23.040;2022-09-02T06:48:33;16.42;;;11.75;;
10479;SDS011;12789;42.610;23.040;2022-09-02T06:51:00;20.25;;;11.57;;
10479;SDS011;12789;42.610;23.040;2022-09-02T06:53:27;19.13;;;12.68;;
10479;SDS011;12789;42.610;23.040;2022-09-02T06:55:54;23.65;;;11.98;;
10479;SDS011;12789;42.610;23.040;2022-09-02T06:58:21;18.48;;;11.23;;
10479;SDS011;12789;42.610;23.040;2022-09-02T07:00:48;25.05;;;11.77;;
10479;SDS011;12789;42.610;23.040;2022-09-02T07:03:15;20.45;;;12.13;;
10479;SDS011;12789;42.610;23.040;2022-09-02T07:06:02;18.77;;;11.05;;
10479;SDS011;12789;42.610;23.040;2022-09-02T07:08:34;22.02;;;11.23;;
10479;SDS011;12789;42.610;23.040;2022-09-02T07:11:02;13.60;;;10.65;;
10479;SDS011;12789;42.610;23.040;2022-09-02T07:13:30;19.50;;;11.02;;
10479;SDS011;12789;42.610;23.040;2022-09-02T07:15:57;22.85;;;11.70;;
10479;SDS011;12789;42.610;23.040;2022-09-02T07:18:24;20.45;;;10.55;;
10479;SDS011;12789;42.610;23.040;2022-09-02T07:20:51;18.77;;;9.38;;
10479;SDS011;12789;42.610;23.040;2022-09-02T07:23:21;16.92;;;9.40;;
10479;SDS011;12789;42.610;23.040;2022-09-02T07:25:48;15.32;;;9.70;;
10479;SDS011;12789;42.610;23.040;2022-09-02T07:28:15;12.18;;;8.95;;
10479;SDS011;12789;42.610;23.040;2022-09-02T07:30:42;19.17;;;8.43;;
10479;SDS011;12789;42.610;23.040;2022-09-02T07:33:10;15.68;;;8.90;;
10479;SDS011;12789;42.610;23.040;2022-09-02T07:35:39;17.50;;;8.68;;
10479;SDS011;12789;42.610;23.040;2022-09-02T07:38:07;14.93;;;7.95;;
10479;SDS011;12789;42.610;23.040;2022-09-02T07:40:35;10.45;;;7.53;;
10479;SDS011;12789;42.610;23.040;2022-09-02T07:43:03;16.02;;;8.38;;
10479;SDS011;12789;42.610;23.040;2022-09-02T07:45:32;14.82;;;7.70;;
10479;SDS011;12789;42.610;23.040;2022-09-02T07:48:00;14.88;;;8.57;;
10479;SDS011;12789;42.610;23.040;2022-09-02T07:50:31;13.13;;;7.90;;
10479;SDS011;12789;42.610;23.040;2022-09-02T07:52:58;13.38;;;7.60;;
10479;SDS011;12789;42.610;23.040;2022-09-02T07:55:26;13.93;;;9.93;;
10479;SDS011;12789;42.610;23.040;2022-09-02T07:57:56;14.32;;;8.30;;
10479;SDS011;12789;42.610;23.040;2022-09-02T08:00:24;12.73;;;7.78;;
10479;SDS011;12789;42.610;23.040;2022-09-02T08:02:52;44.28;;;9.25;;
10479;SDS011;12789;42.610;23.040;2022-09-02T08:05:19;12.45;;;7.93;;
10479;SDS011;12789;42.610;23.040;2022-09-02T08:07:46;13.57;;;7.47;;
10479;SDS011;12789;42.610;23.040;2022-09-02T08:10:14;14.95;;;7.70;;
10479;SDS011;12789;42.610;23.040;2022-09-02T08:12:41;9.63;;;6.90;;
10479;SDS011;12789;42.610;23.040;2022-09-02T08:15:10;14.25;;;7.47;;
10479;SDS011;12789;42.610;23.040;2022-09-02T08:17:38;14.02;;;7.25;;
10479;SDS011;12789;42.610;23.040;2022-09-02T08:20:07;9.07;;;7.32;;
10479;SDS011;12789;42.610;23.040;2022-09-02T08:22:36;19.20;;;7.57;;
10479;SDS011;12789;42.610;23.040;2022-09-02T08:25:03;8.85;;;6.53;;
10479;SDS011;12789;42.610;23.040;2022-09-02T08:27:31;13.68;;;7.22;;
10479;SDS011;12789;42.610;23.040;2022-09-02T08:29:59;9.60;;;6.95;;
10479;SDS011;12789;42.610;23.040;2022-09-02T08:32:27;11.30;;;6.43;;
10479;SDS011;12789;42.610;23.040;2022-09-02T08:34:57;14.02;;;7.05;;
10479;SDS011;12789;42.610;23.040;2022-09-02T08:37:26;8.85;;;6.68;;
10479;SDS011;12789;42.610;23.040;2022-09-02T08:39:55;11.73;;;6.82;;
10479;SDS011;12789;42.610;23.040;2022-09-02T08:42:23;9.10;;;6.80;;
10479;SDS011;12789;42.610;23.040;2022-09-02T08:44:59;10.63;;;6.70;;
10479;SDS011;12789;42.610;23.040;2022-09-02T08:47:34;10.93;;;6.75;;
10479;SDS011;12789;42.610;23.040;2022-09-02T08:50:05;10.23;;;7.03;;
10479;SDS011;12789;42.610;23.040;2022-09-02T08:52:38;11.68;;;6.95;;
10479;SDS011;12789;42.610;23.040;2022-09-02T08:55:11;8.45;;;6.90;;
10479;SDS011;12789;42.610;23.040;2022-09-02T08:57:41;15.00;;;6.13;;
10479;SDS011;12789;42.610;23.040;2022-09-02T09:00:11;9.57;;;7.30;;
10479;SDS011;12789;42.610;23.040;2022-09-02T09:02:46;8.00;;;6.50;;
10479;SDS011;12789;42.610;23.040;2022-09-02T09:05:22;9.10;;;6.45;;
10479;SDS011;12789;42.610;23.040;2022-09-02T09:08:02;12.07;;;6.63;;
10479;SDS011;12789;42.610;23.040;2022-09-02T09:10:37;9.27;;;7.03;;
10479;SDS011;12789;42.610;23.040;2022-09-02T09:16:09;13.45;;;7.57;;
10479;SDS011;12789;42.610;23.040;2022-09-02T09:18:43;11.38;;;7.90;;
10479;SDS011;12789;42.610;23.040;2022-09-02T09:21:23;11.48;;;7.80;;
10479;SDS011;12789;42.610;23.040;2022-09-02T09:23:53;8.57;;;6.80;;
10479;SDS011;12789;42.610;23.040;2022-09-02T09:26:23;9.57;;;6.65;;
10479;SDS011;12789;42.610;23.040;2022-09-02T09:28:55;7.43;;;6.35;;
10479;SDS011;12789;42.610;23.040;2022-09-02T09:31:26;7.13;;;5.47;;
10479;SDS011;12789;42.610;23.040;2022-09-02T09:33:59;7.82;;;6.28;;
10479;SDS011;12789;42.610;23.040;2022-09-02T09:36:47;7.40;;;6.18;;
10479;SDS011;12789;42.610;23.040;2022-09-02T09:39:22;8.25;;;5.80;;
10479;SDS011;12789;42.610;23.040;2022-09-02T09:41:51;9.90;;;6.78;;
10479;SDS011;12789;42.610;23.040;2022-09-02T09:44:35;10.80;;;6.25;;
10479;SDS011;12789;42.610;23.040;2022-09-02T09:47:10;7.95;;;5.95;;
10479;SDS011;12789;42.610;23.040;2022-09-02T09:49:45;7.97;;;5.97;;
10479;SDS011;12789;42.610;23.040;2022-09-02T09:52:23;9.77;;;6.13;;
10479;SDS011;12789;42.610;23.040;2022-09-02T09:55:08;9.10;;;6.25;;
10479;SDS011;12789;42.610;23.040;2022-09-02T09:57:38;9.00;;;6.25;;
10479;SDS011;12789;42.610;23.040;2022-09-02T10:00:11;11.75;;;6.68;;
10479;SDS011;12789;42.610;23.040;2022-09-02T10:02:45;9.93;;;6.88;;
10479;SDS011;12789;42.610;23.040;2022-09-02T10:05:22;10.15;;;6.55;;
10479;SDS011;12789;42.610;23.040;2022-09-02T10:07:54;8.57;;;6.60;;
10479;SDS011;12789;42.610;23.040;2022-09-02T10:10:22;12.48;;;6.57;;
10479;SDS011;12789;42.610;23.040;2022-09-02T10:12:51;10.50;;;7.47;;
10479;SDS011;12789;42.610;23.040;2022-09-02T10:15:22;12.65;;;8.35;;
10479;SDS011;12789;42.610;23.040;2022-09-02T10:17:55;13.80;;;7.85;;
10479;SDS011;12789;42.610;23.040;2022-09-02T10:20:28;11.35;;;9.07;;
10479;SDS011;12789;42.610;23.040;2022-09-02T10:23:16;9.93;;;8.88;;
10479;SDS011;12789;42.610;23.040;2022-09-02T10:25:55;10.27;;;9.00;;
10479;SDS011;12789;42.610;23.040;2022-09-02T10:28:37;12.13;;;8.68;;
10479;SDS011;12789;42.610;23.040;2022-09-02T10:31:14;10.43;;;8.65;;
10479;SDS011;12789;42.610;23.040;2022-09-02T10:33:53;9.52;;;7.90;;
10479;SDS011;12789;42.610;23.040;2022-09-02T10:36:34;10.63;;;9.02;;
10479;SDS011;12789;42.610;23.040;2022-09-02T10:39:12;9.77;;;8.07;;
10479;SDS011;12789;42.610;23.040;2022-09-02T10:41:48;11.68;;;8.32;;
10479;SDS011;12789;42.610;23.040;2022-09-02T10:44:25;9.25;;;7.63;;
10479;SDS011;12789;42.610;23.040;2022-09-02T10:47:00;9.57;;;7.35;;
10479;SDS011;12789;42.610;23.040;2022-09-02T10:49:43;7.82;;;7.03;;
10479;SDS011;12789;42.610;23.040;2022-09-02T10:52:24;8.63;;;7.13;;
10479;SDS011;12789;42.610;23.040;2022-09-02T10:55:11;11.13;;;7.15;;
10479;SDS011;12789;42.610;23.040;2022-09-02T10:57:44;10.63;;;7.13;;
10479;SDS011;12789;42.610;23.040;2022-09-02T11:00:15;10.75;;;7.82;;
10479;SDS011;12789;42.610;23.040;2022-09-02T11:02:44;8.82;;;7.38;;
10479;SDS011;12789;42.610;23.040;2022-09-02T11:05:15;9.32;;;8.30;;
10479;SDS011;12789;42.610;23.040;2022-09-02T11:07:49;7.65;;;6.97;;
10479;SDS011;12789;42.610;23.040;2022-09-02T11:10:21;10.68;;;7.97;;
10479;SDS011;12789;42.610;23.040;2022-09-02T11:12:53;8.30;;;7.40;;
10479;SDS011;12789;42.610;23.040;2022-09-02T11:15:30;11.50;;;8.30;;
10479;SDS011;12789;42.610;23.040;2022-09-02T11:18:08;12.32;;;7.13;;
10479;SDS011;12789;42.610;23.040;2022-09-02T11:20:43;11.23;;;7.45;;
10479;SDS011;12789;42.610;23.040;2022-09-02T11:23:18;10.23;;;7.97;;
10479;SDS011;12789;42.610;23.040;2022-09-02T11:25:52;11.93;;;7.40;;
10479;SDS011;12789;42.610;23.040;2022-09-02T11:28:28;11.52;;;7.85;;
10479;SDS011;12789;42.610;23.040;2022-09-02T11:31:03;9.77;;;7.60;;
10479;SDS011;12789;42.610;23.040;2022-09-02T11:33:36;9.05;;;7.32;;
10479;SDS011;12789;42.610;23.040;2022-09-02T11:36:09;8.48;;;7.68;;
10479;SDS011;12789;42.610;23.040;2022-09-02T11:38:39;10.27;;;8.15;;
10479;SDS011;12789;42.610;23.040;2022-09-02T11:44:15;11.25;;;7.78;;
10479;SDS011;12789;42.610;23.040;2022-09-02T11:47:04;9.85;;;7.45;;
10479;SDS011;12789;42.610;23.040;2022-09-02T11:49:55;8.45;;;7.53;;
10479;SDS011;12789;42.610;23.040;2022-09-02T11:52:43;10.45;;;7.57;;
10479;SDS011;12789;42.610;23.040;2022-09-02T11:55:23;9.95;;;6.90;;
10479;SDS011;12789;42.610;23.040;2022-09-02T11:57:56;11.50;;;7.70;;
10479;SDS011;12789;42.610;23.040;2022-09-02T12:00:25;9.07;;;7.50;;
10479;SDS011;12789;42.610;23.040;2022-09-02T12:02:57;10.45;;;7.35;;
10479;SDS011;12789;42.610;23.040;2022-09-02T12:11:34;9.00;;;7.40;;
10479;SDS011;12789;42.610;23.040;2022-09-02T12:14:04;11.15;;;7.80;;
10479;SDS011;12789;42.610;23.040;2022-09-02T12:16:35;8.75;;;7.22;;
10479;SDS011;12789;42.610;23.040;2022-09-02T12:19:26;9.18;;;7.72;;
10479;SDS011;12789;42.610;23.040;2022-09-02T12:24:52;10.80;;;8.13;;
10479;SDS011;12789;42.610;23.040;2022-09-02T12:27:26;11.40;;;8.15;;
10479;SDS011;12789;42.610;23.040;2022-09-02T12:29:54;13.43;;;9.35;;
10479;SDS011;12789;42.610;23.040;2022-09-02T12:35:28;10.05;;;8.23;;
10479;SDS011;12789;42.610;23.040;2022-09-02T12:40:52;9.95;;;8.27;;
10479;SDS011;12789;42.610;23.040;2022-09-02T12:43:27;9.52;;;8.55;;
10479;SDS011;12789;42.610;23.040;2022-09-02T12:46:00;11.77;;;8.88;;
10479;SDS011;12789;42.610;23.040;2022-09-02T12:48:35;9.65;;;8.52;;
10479;SDS011;12789;42.610;23.040;2022-09-02T12:51:07;11.15;;;8.25;;
10479;SDS011;12789;42.610;23.040;2022-09-02T12:53:34;10.45;;;8.82;;
10479;SDS011;12789;42.610;23.040;2022-09-02T12:56:06;11.45;;;8.85;;
10479;SDS011;12789;42.610;23.040;2022-09-02T12:58:47;10.82;;;8.48;;
10479;SDS011;12789;42.610;23.040;2022-09-02T13:01:16;12.60;;;9.55;;
10479;SDS011;12789;42.610;23.040;2022-09-02T13:06:42;9.63;;;8.73;;
10479;SDS011;12789;42.610;23.040;2022-09-02T13:09:28;11.30;;;9.15;;
10479;SDS011;12789;42.610;23.040;2022-09-02T13:12:19;10.25;;;9.25;;
10479;SDS011;12789;42.610;23.040;2022-09-02T13:15:16;11.38;;;9.82;;
10479;SDS011;12789;42.610;23.040;2022-09-02T13:18:01;15.30;;;9.80;;
10479;SDS011;12789;42.610;23.040;2022-09-02T13:21:03;10.40;;;9.40;;
10479;SDS011;12789;42.610;23.040;2022-09-02T13:23:44;10.70;;;9.35;;
10479;SDS011;12789;42.610;23.040;2022-09-02T13:26:36;12.63;;;9.55;;
10479;SDS011;12789;42.610;23.040;2022-09-02T13:29:28;13.13;;;10.10;;
10479;SDS011;12789;42.610;23.040;2022-09-02T13:32:26;15.10;;;11.75;;
10479;SDS011;12789;42.610;23.040;2022-09-02T13:34:55;14.15;;;11.73;;
10479;SDS011;12789;42.610;23.040;2022-09-02T13:37:26;14.45;;;11.68;;
10479;SDS011;12789;42.610;23.040;2022-09-02T13:39:55;13.48;;;11.13;;
10479;SDS011;12789;42.610;23.040;2022-09-02T13:42:23;17.55;;;11.10;;
10479;SDS011;12789;42.610;23.040;2022-09-02T13:47:39;14.65;;;11.48;;
10479;SDS011;12789;42.610;23.040;2022-09-02T13:50:08;10.77;;;9.65;;
10479;SDS011;12789;42.610;23.040;2022-09-02T13:52:36;10.85;;;9.02;;
10479;SDS011;12789;42.610;23.040;2022-09-02T13:55:06;9.73;;;8.77;;
10479;SDS011;12789;42.610;23.040;2022-09-02T13:57:37;11.45;;;10.27;;
10479;SDS011;12789;42.610;23.040;2022-09-02T14:00:05;11.85;;;9.38;;
10479;SDS011;12789;42.610;23.040;2022-09-02T14:02:33;12.85;;;9.77;;
10479;SDS011;12789;42.610;23.040;2022-09-02T14:05:03;10.95;;;8.27;;
10479;SDS011;12789;42.610;23.040;2022-09-02T14:07:42;8.00;;;7.13;;
10479;SDS011;12789;42.610;23.040;2022-09-02T14:10:14;7.53;;;6.47;;
10479;SDS011;12789;42.610;23.040;2022-09-02T14:12:43;7.97;;;5.60;;
10479;SDS011;12789;42.610;23.040;2022-09-02T14:15:12;6.80;;;5.25;;
10479;SDS011;12789;42.610;23.040;2022-09-02T14:17:40;5.43;;;4.88;;
10479;SDS011;12789;42.610;23.040;2022-09-02T14:20:18;5.13;;;4.63;;
10479;SDS011;12789;42.610;23.040;2022-09-02T14:22:52;6.63;;;4.85;;
10479;SDS011;12789;42.610;23.040;2022-09-02T14:25:20;5.53;;;4.78;;
10479;SDS011;12789;42.610;23.040;2022-09-02T14:27:48;5.55;;;5.05;;
10479;SDS011;12789;42.610;23.040;2022-09-02T14:36:10;9.25;;;7.10;;
10479;SDS011;12789;42.610;23.040;2022-09-02T14:38:55;10.95;;;7.97;;
10479;SDS011;12789;42.610;23.040;2022-09-02T14:41:35;13.82;;;8.95;;
10479;SDS011;12789;42.610;23.040;2022-09-02T14:44:10;11.55;;;9.57;;
10479;SDS011;12789;42.610;23.040;2022-09-02T14:46:42;11.52;;;9.18;;
10479;SDS011;12789;42.610;23.040;2022-09-02T14:49:11;16.98;;;9.95;;
10479;SDS011;12789;42.610;23.040;2022-09-02T14:51:48;13.05;;;9.30;;
10479;SDS011;12789;42.610;23.040;2022-09-02T14:54:33;12.15;;;9.57;;
10479;SDS011;12789;42.610;23.040;2022-09-02T14:57:02;15.93;;;9.57;;
10479;SDS011;12789;42.610;23.040;2022-09-02T14:59:30;12.10;;;9.40;;
10479;SDS011;12789;42.610;23.040;2022-09-02T15:01:57;14.55;;;9.35;;
10479;SDS011;12789;42.610;23.040;2022-09-02T15:04:26;13.90;;;9.45;;
10479;SDS011;12789;42.610;23.040;2022-09-02T15:06:57;19.90;;;10.25;;
10479;SDS011;12789;42.610;23.040;2022-09-02T15:09:26;12.95;;;10.45;;
10479;SDS011;12789;42.610;23.040;2022-09-02T15:11:53;11.80;;;10.60;;